Rome, Georgia
Current Conditions -  °F | °C
As of 8:53 PM on Monday 24 Nov 2014 (Local Time) from KRMG Reporting Station
Clear Clear  
Wind Chill: 53°   Ceiling: Unl
Heat Index: 53°   Visibility: 10mi
Dew Point: 43°   Wind: 5mph
Humidity: 69%   Direction: 270°W
Pressure: 29.95"   Gusts: NA
Location:  34.25°N, 85.17°W
Report Text: KRMG 250153Z AUTO 27004KT 10SM CLR 12/06 A2995 RMK AO2 SLP138 T01170061
Loading
Personal Weather Stations






























Interactive Weather Map New forecast layout! Learn more

10-Day Weather Forecast

Advertisements
Track Severe Weather on mobile